Time,TemperatureF,DewpointF,PressureIn,WindDirection,WindDirectionDegrees,WindSpeedMPH,WindSpeedGustMPH,Humidity,HourlyPrecipIn,Conditions,Clouds,dailyrainin,SoftwareType,DateUTC
2013-05-17 00:44:00,56.1,54.0,29.93,SW,231,0.0,0.0,91,0.00,,,0.00,weatherlink.com 1.10,2013-05-17 07:44:00,
2013-05-17 00:54:00,56.2,54.0,29.93,SW,231,0.0,0.0,91,0.00,,,0.00,weatherlink.com 1.10,2013-05-17 07:54:00,
2013-05-17 01:09:00,56.3,54.0,29.93,SW,231,0.0,0.0,91,0.00,,,0.00,weatherlink.com 1.10,2013-05-17 08:09:00,
2013-05-17 01:24:00,55.9,54.0,29.93,SW,231,0.0,0.0,92,0.00,,,0.00,weatherlink.com 1.10,2013-05-17 08:24:00,
2013-05-17 01:39:00,55.6,53.0,29.93,West,261,0.0,0.0,92,0.00,,,0.00,weatherlink.com 1.10,2013-05-17 08:39:00,
2013-05-17 01:54:00,55.6,53.0,29.92,West,262,0.0,1.0,92,0.00,,,0.00,weatherlink.com 1.10,2013-05-17 08:54:00,
2013-05-17 02:09:00,55.0,53.0,29.92,West,262,0.0,0.0,91,0.00,,,0.00,weatherlink.com 1.10,2013-05-17 09:09:00,
2013-05-17 02:24:00,55.0,53.0,29.92,West,262,0.0,0.0,92,0.00,,,0.00,weatherlink.com 1.10,2013-05-17 09:24:00,
2013-05-17 02:39:00,54.3,52.0,29.92,West,262,0.0,0.0,92,0.00,,,0.00,weatherlink.com 1.10,2013-05-17 09:39:00,
2013-05-17 02:54:00,54.6,52.0,29.92,West,261,0.0,1.0,92,0.00,,,0.00,weatherlink.com 1.10,2013-05-17 09:54:00,
2013-05-17 03:09:00,54.6,53.0,29.92,ENE,72,0.0,1.0,93,0.00,,,0.00,weatherlink.com 1.10,2013-05-17 10:09:00,
2013-05-17 03:24:00,54.8,53.0,29.92,NE,56,0.0,1.0,92,0.00,,,0.00,weatherlink.com 1.10,2013-05-17 10:24:00,
2013-05-17 03:39:00,54.8,52.0,29.92,ENE,64,0.0,1.0,91,0.00,,,0.00,weatherlink.com 1.10,2013-05-17 10:39:00,
2013-05-17 03:55:00,54.1,52.0,29.92,ENE,65,0.0,0.0,91,0.00,,,0.00,weatherlink.com 1.10,2013-05-17 10:55:00,
2013-05-17 04:10:00,53.9,52.0,29.93,ENE,64,0.0,1.0,92,0.00,,,0.00,weatherlink.com 1.10,2013-05-17 11:10:00,
2013-05-17 04:25:00,54.1,52.0,29.93,ENE,65,0.0,0.0,92,0.00,,,0.00,weatherlink.com 1.10,2013-05-17 11:25:00,
2013-05-17 04:40:00,53.7,52.0,29.93,ENE,64,0.0,0.0,92,0.00,,,0.00,weatherlink.com 1.10,2013-05-17 11:40:00,
2013-05-17 04:55:00,53.9,52.0,29.93,ENE,64,0.0,0.0,92,0.00,,,0.00,weatherlink.com 1.10,2013-05-17 11:55:00,
2013-05-17 05:10:00,53.7,52.0,29.93,ENE,66,0.0,0.0,92,0.00,,,0.00,weatherlink.com 1.10,2013-05-17 12:10:00,
2013-05-17 05:25:00,53.0,51.0,29.94,ENE,66,0.0,0.0,93,0.00,,,0.00,weatherlink.com 1.10,2013-05-17 12:25:00,
2013-05-17 05:40:00,52.9,51.0,29.94,ENE,66,0.0,0.0,93,0.00,,,0.00,weatherlink.com 1.10,2013-05-17 12:40:00,
2013-05-17 05:55:00,52.9,51.0,29.95,ENE,65,0.0,1.0,94,0.00,,,0.00,weatherlink.com 1.10,2013-05-17 12:55:00,
2013-05-17 06:10:00,53.0,51.0,29.95,ENE,66,0.0,0.0,94,0.00,,,0.00,weatherlink.com 1.10,2013-05-17 13:10:00,
2013-05-17 06:25:00,53.6,52.0,29.96,ENE,65,0.0,0.0,94,0.00,,,0.00,weatherlink.com 1.10,2013-05-17 13:25:00,
2013-05-17 06:40:00,54.0,52.0,29.96,ESE,112,0.0,1.0,93,0.00,,,0.00,weatherlink.com 1.10,2013-05-17 13:40:00,
2013-05-17 06:55:00,54.6,53.0,29.97,ESE,112,0.0,0.0,93,0.00,,,0.00,weatherlink.com 1.10,2013-05-17 13:55:00,
2013-05-17 07:10:00,55.6,54.0,29.97,ESE,112,0.0,0.0,93,0.00,,,0.00,weatherlink.com 1.10,2013-05-17 14:10:00,
2013-05-17 07:25:00,56.5,54.0,29.97,ESE,112,0.0,1.0,92,0.00,,,0.00,weatherlink.com 1.10,2013-05-17 14:25:00,
2013-05-17 07:40:00,57.7,55.0,29.97,ESE,112,0.0,0.0,90,0.00,,,0.00,weatherlink.com 1.10,2013-05-17 14:40:00,
2013-05-17 07:55:00,58.8,55.0,29.97,ESE,122,0.0,1.0,88,0.00,,,0.00,weatherlink.com 1.10,2013-05-17 14:55:00,
2013-05-17 08:10:00,59.8,56.0,29.97,SW,223,0.0,1.0,87,0.00,,,0.00,weatherlink.com 1.10,2013-05-17 15:10:00,
2013-05-17 08:25:00,61.7,57.0,29.98,South,182,0.0,0.0,83,0.00,,,0.00,weatherlink.com 1.10,2013-05-17 15:25:00,
2013-05-17 08:40:00,61.9,56.0,29.98,SE,143,1.0,2.0,82,0.00,,,0.00,weatherlink.com 1.10,2013-05-17 15:40:00,
2013-05-17 08:55:00,63.1,57.0,29.98,West,261,2.0,2.0,79,0.00,,,0.00,weatherlink.com 1.10,2013-05-17 15:55:00,
2013-05-17 09:10:00,65.1,57.0,29.98,West,259,1.0,4.0,75,0.00,,,0.00,weatherlink.com 1.10,2013-05-17 16:10:00,
2013-05-17 09:25:00,66.8,57.0,29.98,NW,309,2.0,4.0,71,0.00,,,0.00,weatherlink.com 1.10,2013-05-17 16:25:00,
2013-05-17 09:40:00,68.1,57.0,29.98,WSW,257,0.0,3.0,68,0.00,,,0.00,weatherlink.com 1.10,2013-05-17 16:40:00,
2013-05-17 09:55:00,68.7,57.0,29.98,WSW,250,2.0,6.0,66,0.00,,,0.00,weatherlink.com 1.10,2013-05-17 16:55:00,
2013-05-17 10:10:00,69.5,57.0,29.97,SW,234,0.0,5.0,64,0.00,,,0.00,weatherlink.com 1.10,2013-05-17 17:10:00,
2013-05-17 10:26:00,70.6,57.0,29.97,WSW,244,2.0,5.0,62,0.00,,,0.00,weatherlink.com 1.10,2013-05-17 17:26:00,
2013-05-17 10:41:00,70.9,57.0,29.97,WSW,240,1.0,7.0,62,0.00,,,0.00,weatherlink.com 1.10,2013-05-17 17:41:00,
2013-05-17 10:56:00,71.9,57.0,29.98,SW,216,2.0,7.0,60,0.00,,,0.00,weatherlink.com 1.10,2013-05-17 17:56:00,
2013-05-17 11:11:00,70.3,58.0,29.98,WNW,282,3.0,10.0,65,0.00,,,0.00,weatherlink.com 1.10,2013-05-17 18:11:00,
2013-05-17 11:26:00,70.5,57.0,29.98,West,272,4.0,12.0,62,0.00,,,0.00,weatherlink.com 1.10,2013-05-17 18:26:00,
2013-05-17 11:41:00,71.1,56.0,29.98,ESE,122,3.0,8.0,60,0.00,,,0.00,weatherlink.com 1.10,2013-05-17 18:41:00,
2013-05-17 11:56:00,71.3,57.0,29.97,North,351,1.0,10.0,62,0.00,,,0.00,weatherlink.com 1.10,2013-05-17 18:56:00,
2013-05-17 12:11:00,72.4,57.0,29.97,West,276,3.0,11.0,59,0.00,,,0.00,weatherlink.com 1.10,2013-05-17 19:11:00,
2013-05-17 12:26:00,72.1,56.0,29.97,West,269,4.0,10.0,58,0.00,,,0.00,weatherlink.com 1.10,2013-05-17 19:26:00,
2013-05-17 12:41:00,71.5,57.0,29.97,WSW,237,5.0,10.0,60,0.00,,,0.00,weatherlink.com 1.10,2013-05-17 19:41:00,
2013-05-17 12:56:00,71.8,57.0,29.97,SW,234,3.0,13.0,59,0.00,,,0.00,weatherlink.com 1.10,2013-05-17 19:56:00,
2013-05-17 13:11:00,70.9,57.0,29.98,South,174,1.0,10.0,62,0.00,,,0.00,weatherlink.com 1.10,2013-05-17 20:11:00,
2013-05-17 13:26:00,70.5,56.0,29.98,SW,231,7.0,13.0,61,0.00,,,0.00,weatherlink.com 1.10,2013-05-17 20:26:00,
2013-05-17 13:41:00,71.8,57.0,29.98,WSW,257,2.0,9.0,60,0.00,,,0.00,weatherlink.com 1.10,2013-05-17 20:41:00,
2013-05-17 13:56:00,71.7,56.0,29.98,WNW,283,4.0,11.0,59,0.00,,,0.00,weatherlink.com 1.10,2013-05-17 20:56:00,
2013-05-17 14:11:00,71.0,56.0,29.97,SW,226,3.0,9.0,60,0.00,,,0.00,weatherlink.com 1.10,2013-05-17 21:11:00,
2013-05-17 14:26:00,70.2,57.0,29.97,South,185,7.0,9.0,63,0.00,,,0.00,weatherlink.com 1.10,2013-05-17 21:26:00,
2013-05-17 14:41:00,70.6,56.0,29.97,West,276,0.0,9.0,61,0.00,,,0.00,weatherlink.com 1.10,2013-05-17 21:41:00,
2013-05-17 14:56:00,70.1,56.0,29.97,WNW,303,7.0,10.0,62,0.00,,,0.00,weatherlink.com 1.10,2013-05-17 21:56:00,
2013-05-17 15:11:00,70.7,56.0,29.97,WSW,252,4.0,8.0,60,0.00,,,0.00,weatherlink.com 1.10,2013-05-17 22:11:00,
2013-05-17 15:26:00,70.2,56.0,29.96,SW,226,5.0,8.0,60,0.00,,,0.00,weatherlink.com 1.10,2013-05-17 22:26:00,
2013-05-17 15:41:00,70.8,56.0,29.96,WSW,241,2.0,8.0,60,0.00,,,0.00,weatherlink.com 1.10,2013-05-17 22:41:00,
2013-05-17 15:56:00,71.6,56.0,29.96,WNW,290,3.0,9.0,59,0.00,,,0.00,weatherlink.com 1.10,2013-05-17 22:56:00,
2013-05-17 16:11:00,70.2,55.0,29.95,SW,222,3.0,7.0,59,0.00,,,0.00,weatherlink.com 1.10,2013-05-17 23:11:00,
2013-05-17 16:26:00,70.4,55.0,29.95,NW,318,4.0,8.0,59,0.00,,,0.00,weatherlink.com 1.10,2013-05-17 23:26:00,
2013-05-17 16:41:00,69.6,54.0,29.95,WSW,238,5.0,9.0,58,0.00,,,0.00,weatherlink.com 1.10,2013-05-17 23:41:00,
2013-05-17 16:56:00,68.9,55.0,29.95,SSE,163,2.0,11.0,61,0.00,,,0.00,weatherlink.com 1.10,2013-05-17 23:56:00,
2013-05-17 17:11:00,66.8,54.0,29.95,SSW,210,4.0,10.0,64,0.00,,,0.00,weatherlink.com 1.10,2013-05-18 00:11:00,
2013-05-17 17:26:00,67.0,53.0,29.95,SW,231,0.0,6.0,62,0.00,,,0.00,weatherlink.com 1.10,2013-05-18 00:26:00,
2013-05-17 17:41:00,66.8,53.0,29.95,East,101,1.0,5.0,62,0.00,,,0.00,weatherlink.com 1.10,2013-05-18 00:41:00,
2013-05-17 17:56:00,65.8,54.0,29.95,WSW,252,3.0,9.0,66,0.00,,,0.00,weatherlink.com 1.10,2013-05-18 00:56:00,
2013-05-17 18:11:00,64.5,54.0,29.95,SW,230,1.0,6.0,69,0.00,,,0.00,weatherlink.com 1.10,2013-05-18 01:11:00,
2013-05-17 18:26:00,64.1,53.0,29.95,WSW,252,0.0,6.0,68,0.00,,,0.00,weatherlink.com 1.10,2013-05-18 01:26:00,
2013-05-17 18:41:00,64.0,53.0,29.95,West,261,2.0,4.0,67,0.00,,,0.00,weatherlink.com 1.10,2013-05-18 01:41:00,
2013-05-17 18:56:00,63.0,53.0,29.95,WSW,243,0.0,3.0,69,0.00,,,0.00,weatherlink.com 1.10,2013-05-18 01:56:00,
2013-05-17 19:11:00,62.8,52.0,29.96,SE,141,1.0,2.0,69,0.00,,,0.00,weatherlink.com 1.10,2013-05-18 02:11:00,
2013-05-17 19:26:00,61.3,52.0,29.96,West,269,0.0,3.0,72,0.00,,,0.00,weatherlink.com 1.10,2013-05-18 02:26:00,
2013-05-17 19:41:00,60.0,52.0,29.96,ESE,122,0.0,3.0,75,0.00,,,0.00,weatherlink.com 1.10,2013-05-18 02:41:00,
2013-05-17 19:56:00,59.4,52.0,29.96,South,183,0.0,2.0,77,0.00,,,0.00,weatherlink.com 1.10,2013-05-18 02:56:00,
2013-05-17 20:11:00,58.8,52.0,29.96,SSE,162,0.0,2.0,78,0.00,,,0.00,weatherlink.com 1.10,2013-05-18 03:11:00,
2013-05-17 20:26:00,58.1,51.0,29.97,ESE,115,3.0,3.0,78,0.00,,,0.00,weatherlink.com 1.10,2013-05-18 03:26:00,
2013-05-17 20:41:00,58.0,51.0,29.97,SSE,155,0.0,3.0,77,0.00,,,0.00,weatherlink.com 1.10,2013-05-18 03:41:00,
2013-05-17 20:56:00,57.4,51.0,29.98,ESE,115,0.0,0.0,78,0.00,,,0.00,weatherlink.com 1.10,2013-05-18 03:56:00,
2013-05-17 21:11:00,57.1,50.0,29.98,ESE,115,0.0,0.0,78,0.00,,,0.00,weatherlink.com 1.10,2013-05-18 04:11:00,
2013-05-17 21:27:00,56.3,50.0,29.98,ESE,115,0.0,0.0,79,0.00,,,0.00,weatherlink.com 1.10,2013-05-18 04:27:00,
2013-05-17 21:42:00,56.4,51.0,29.99,ESE,115,0.0,0.0,81,0.00,,,0.00,weatherlink.com 1.10,2013-05-18 04:42:00,
2013-05-17 21:57:00,56.9,50.0,29.99,NNE,24,0.0,1.0,79,0.00,,,0.00,weatherlink.com 1.10,2013-05-18 04:57:00,
2013-05-17 22:12:00,56.9,50.0,29.99,NNE,23,0.0,0.0,79,0.00,,,0.00,weatherlink.com 1.10,2013-05-18 05:12:00,
2013-05-17 22:27:00,56.5,50.0,29.99,NNE,24,0.0,1.0,80,0.00,,,0.00,weatherlink.com 1.10,2013-05-18 05:27:00,
2013-05-17 22:42:00,56.7,51.0,29.99,NNE,24,0.0,0.0,80,0.00,,,0.00,weatherlink.com 1.10,2013-05-18 05:42:00,
2013-05-17 22:57:00,55.6,50.0,29.99,NNE,23,0.0,0.0,82,0.00,,,0.00,weatherlink.com 1.10,2013-05-18 05:57:00,
2013-05-17 23:12:00,55.6,50.0,29.99,East,91,0.0,1.0,82,0.00,,,0.00,weatherlink.com 1.10,2013-05-18 06:12:00,
2013-05-17 23:27:00,56.1,50.0,29.99,East,91,0.0,1.0,81,0.00,,,0.00,weatherlink.com 1.10,2013-05-18 06:27:00,
2013-05-17 23:42:00,55.1,50.0,29.99,East,91,0.0,0.0,83,0.00,,,0.00,weatherlink.com 1.10,2013-05-18 06:42:00,
2013-05-17 23:57:00,55.0,50.0,29.99,East,91,0.0,0.0,83,0.00,,,0.00,weatherlink.com 1.10,2013-05-18 06:57:00,